createdAt,value
2023-05-24T00:01:58.193Z,8.44
2023-05-24T00:04:46.047Z,8.39
2023-05-24T00:07:33.813Z,8.35
2023-05-24T00:10:21.742Z,8.31
2023-05-24T00:13:09.486Z,8.27
2023-05-24T00:15:57.454Z,8.24
2023-05-24T00:18:47.157Z,8.20
2023-05-24T00:21:36.739Z,8.17
2023-05-24T00:24:24.571Z,8.13
2023-05-24T00:27:12.491Z,8.10
2023-05-24T00:30:00.198Z,8.06
2023-05-24T00:32:49.338Z,8.02
2023-05-24T00:35:37.050Z,7.99
2023-05-24T00:38:27.716Z,7.96
2023-05-24T00:41:15.602Z,7.91
2023-05-24T00:44:03.544Z,7.85
2023-05-24T00:46:51.600Z,7.82
2023-05-24T00:49:40.177Z,7.80
2023-05-24T00:52:28.461Z,7.77
2023-05-24T00:55:16.491Z,7.74
2023-05-24T00:58:05.000Z,7.72
2023-05-24T01:00:59.369Z,7.69
2023-05-24T01:03:47.321Z,7.64
2023-05-24T01:06:46.777Z,7.62
2023-05-24T01:10:04.132Z,7.57
2023-05-24T01:13:03.702Z,7.53
2023-05-24T01:16:14.648Z,7.49
2023-05-24T01:19:22.666Z,7.46
2023-05-24T01:22:48.567Z,7.43
2023-05-24T01:25:49.529Z,7.41
2023-05-24T01:28:39.678Z,7.38
2023-05-24T01:31:28.208Z,7.36
2023-05-24T01:34:15.969Z,7.34
2023-05-24T01:37:03.739Z,7.32
2023-05-24T01:39:53.448Z,7.28
2023-05-24T01:43:18.418Z,7.27
2023-05-24T01:46:34.838Z,7.24
2023-05-24T01:49:34.350Z,7.22
2023-05-24T01:52:28.867Z,7.21
2023-05-24T01:55:18.748Z,7.19
2023-05-24T01:58:09.811Z,7.18
2023-05-24T02:00:58.257Z,7.15
2023-05-24T02:03:47.599Z,7.13
2023-05-24T02:06:36.083Z,7.10
2023-05-24T02:09:23.811Z,7.07
2023-05-24T02:12:11.961Z,7.04
2023-05-24T02:15:00.565Z,6.99
2023-05-24T02:17:48.403Z,6.95
2023-05-24T02:20:37.090Z,6.91
2023-05-24T02:23:25.053Z,6.87
2023-05-24T02:26:13.638Z,6.84
2023-05-24T02:29:01.742Z,6.80
2023-05-24T02:31:54.908Z,6.77
2023-05-24T02:34:42.941Z,6.73
2023-05-24T02:37:31.012Z,6.70
2023-05-24T02:40:18.820Z,6.69
2023-05-24T02:43:06.661Z,6.66
2023-05-24T02:45:54.461Z,6.65
2023-05-24T02:48:42.367Z,6.67
2023-05-24T02:51:30.111Z,6.67
2023-05-24T02:54:18.553Z,6.66
2023-05-24T02:57:09.093Z,6.65
2023-05-24T02:59:57.972Z,6.65
2023-05-24T03:02:47.854Z,6.66
2023-05-24T03:05:35.909Z,6.67
2023-05-24T03:08:23.789Z,6.67
2023-05-24T03:11:11.675Z,6.67
2023-05-24T03:13:59.421Z,6.65
2023-05-24T03:16:47.267Z,6.64
2023-05-24T03:19:35.296Z,6.64
2023-05-24T03:22:23.060Z,6.65
2023-05-24T03:25:10.869Z,6.65
2023-05-24T03:27:59.242Z,6.64
2023-05-24T03:30:47.429Z,6.63
2023-05-24T03:33:35.608Z,6.62
2023-05-24T03:36:23.487Z,6.60
2023-05-24T03:39:11.408Z,6.59
2023-05-24T03:42:15.433Z,6.59
2023-05-24T03:45:03.892Z,6.59
2023-05-24T03:47:52.420Z,6.60
2023-05-24T03:50:40.394Z,6.60
2023-05-24T03:53:28.404Z,6.64
2023-05-24T03:56:16.214Z,6.65
2023-05-24T03:59:04.159Z,6.65
2023-05-24T04:01:53.650Z,6.67
2023-05-24T04:04:41.592Z,6.67
2023-05-24T04:07:29.413Z,6.69
2023-05-24T04:10:17.798Z,6.71
2023-05-24T04:13:05.768Z,6.75
2023-05-24T04:15:57.183Z,6.76
2023-05-24T04:18:45.620Z,6.79
2023-05-24T04:21:35.148Z,6.82
2023-05-24T04:24:23.104Z,6.87
2023-05-24T04:27:10.970Z,6.91
2023-05-24T04:29:59.190Z,6.94
2023-05-24T04:32:47.439Z,6.98
2023-05-24T04:35:36.024Z,7.02
2023-05-24T04:38:24.913Z,7.07
2023-05-24T04:41:13.549Z,7.11
2023-05-24T04:44:01.639Z,7.21
2023-05-24T04:46:49.503Z,7.43
2023-05-24T04:49:37.799Z,7.69
2023-05-24T04:52:25.693Z,8.01
2023-05-24T04:55:13.511Z,8.28
2023-05-24T04:58:01.366Z,8.49
2023-05-24T05:00:49.283Z,8.59
2023-05-24T05:03:37.084Z,8.63
2023-05-24T05:06:25.057Z,8.63
2023-05-24T05:09:15.958Z,8.62
2023-05-24T05:12:03.943Z,8.62
2023-05-24T05:14:51.745Z,8.65
2023-05-24T05:17:39.710Z,8.67
2023-05-24T05:20:27.538Z,8.69
2023-05-24T05:23:15.396Z,8.72
2023-05-24T05:26:03.233Z,8.76
2023-05-24T05:28:50.956Z,8.78
2023-05-24T05:31:39.710Z,8.84
2023-05-24T05:34:27.508Z,8.90
2023-05-24T05:37:15.305Z,8.99
2023-05-24T05:40:04.496Z,9.05
2023-05-24T05:42:52.398Z,9.14
2023-05-24T05:45:40.814Z,9.24
2023-05-24T05:48:28.628Z,9.36
2023-05-24T05:51:16.393Z,9.45
2023-05-24T05:54:05.689Z,9.56
2023-05-24T05:56:53.472Z,9.65
2023-05-24T05:59:41.266Z,9.74
2023-05-24T06:02:29.260Z,9.86
2023-05-24T06:05:19.300Z,9.99
2023-05-24T06:08:07.127Z,10.11
2023-05-24T06:10:54.893Z,10.25
2023-05-24T06:13:42.671Z,10.39
2023-05-24T06:17:54.804Z,10.56
2023-05-24T06:20:27.673Z,10.75
2023-05-24T06:23:15.501Z,10.93
2023-05-24T06:26:03.946Z,11.11
2023-05-24T06:28:51.773Z,11.29
2023-05-24T06:31:40.206Z,11.49
2023-05-24T06:34:29.692Z,11.71
2023-05-24T06:37:17.580Z,11.96
2023-05-24T06:40:11.597Z,12.17
2023-05-24T06:42:59.689Z,12.35
2023-05-24T06:45:47.662Z,12.53
2023-05-24T06:48:35.567Z,12.62
2023-05-24T06:51:23.911Z,12.60
2023-05-24T06:54:11.816Z,12.61
2023-05-24T06:57:00.119Z,12.65
2023-05-24T06:59:47.956Z,12.87
2023-05-24T07:02:36.043Z,12.93
2023-05-24T07:05:23.858Z,12.92
2023-05-24T07:08:11.624Z,13.00
2023-05-24T07:10:59.558Z,13.06
2023-05-24T07:13:47.375Z,13.09
2023-05-24T07:16:35.109Z,13.07
2023-05-24T07:19:23.024Z,13.02
2023-05-24T07:22:11.170Z,13.03
2023-05-24T07:24:58.952Z,13.04
2023-05-24T07:27:46.713Z,13.03
2023-05-24T07:30:35.080Z,12.99
2023-05-24T07:33:23.010Z,12.98
2023-05-24T07:36:10.862Z,13.03
2023-05-24T07:38:59.536Z,13.30
2023-05-24T07:41:47.442Z,13.43
2023-05-24T07:44:35.347Z,13.44
2023-05-24T07:47:23.284Z,13.40
2023-05-24T07:50:11.807Z,13.35
2023-05-24T07:52:59.728Z,13.31
2023-05-24T07:55:47.718Z,13.35
2023-05-24T07:58:35.959Z,13.50
2023-05-24T08:01:24.451Z,13.69
2023-05-24T08:04:12.307Z,13.84
2023-05-24T08:07:01.935Z,13.98
2023-05-24T08:09:49.782Z,14.26
2023-05-24T08:12:37.580Z,14.46
2023-05-24T08:15:25.270Z,14.48
2023-05-24T08:18:13.136Z,14.45
2023-05-24T08:21:01.008Z,14.37
2023-05-24T08:23:48.813Z,14.33
2023-05-24T08:26:36.600Z,14.55
2023-05-24T08:29:24.357Z,14.90
2023-05-24T08:32:12.370Z,15.11
2023-05-24T08:35:14.871Z,15.12
2023-05-24T08:38:07.858Z,15.01
2023-05-24T08:40:56.622Z,14.86
2023-05-24T08:43:45.157Z,14.69
2023-05-24T08:46:38.633Z,14.96
2023-05-24T08:49:26.954Z,15.36
2023-05-24T08:52:15.682Z,15.81
2023-05-24T08:55:07.609Z,16.22
2023-05-24T08:57:56.419Z,16.30
2023-05-24T09:00:44.315Z,16.19
2023-05-24T09:03:35.619Z,15.97
2023-05-24T09:06:25.397Z,15.83
2023-05-24T09:09:18.361Z,15.82
2023-05-24T09:12:08.684Z,16.20
2023-05-24T09:14:57.424Z,16.43
2023-05-24T09:17:45.902Z,16.42
2023-05-24T09:20:33.776Z,16.38
2023-05-24T09:23:23.055Z,16.39
2023-05-24T09:26:11.720Z,16.43
2023-05-24T09:28:59.567Z,16.38
2023-05-24T09:31:49.424Z,16.30
2023-05-24T09:34:42.590Z,16.24
2023-05-24T09:37:32.890Z,16.38
2023-05-24T09:40:22.703Z,16.75
2023-05-24T09:43:11.401Z,16.92
2023-05-24T09:46:00.658Z,16.93
2023-05-24T09:49:03.467Z,16.93
2023-05-24T09:51:52.791Z,16.86
2023-05-24T09:54:41.725Z,16.77
2023-05-24T09:57:29.840Z,16.74
2023-05-24T10:00:25.162Z,16.67
2023-05-24T10:03:13.760Z,16.62
2023-05-24T10:06:06.605Z,16.58
2023-05-24T10:08:57.012Z,16.55
2023-05-24T10:11:45.910Z,16.58
2023-05-24T10:14:37.035Z,16.60
2023-05-24T10:17:28.060Z,16.59
2023-05-24T10:20:16.288Z,16.50
2023-05-24T10:23:10.010Z,16.43
2023-05-24T10:26:10.357Z,16.31
2023-05-24T10:29:06.803Z,16.26
2023-05-24T10:31:55.791Z,16.11
2023-05-24T10:34:45.619Z,16.01
2023-05-24T10:37:34.216Z,15.87
2023-05-24T10:40:25.665Z,15.76
2023-05-24T10:43:13.652Z,15.64
2023-05-24T10:46:04.680Z,15.61
2023-05-24T10:49:01.363Z,15.57
2023-05-24T10:51:49.193Z,15.52
2023-05-24T10:54:39.895Z,15.49
2023-05-24T10:57:29.082Z,15.51
2023-05-24T11:03:24.659Z,15.74
2023-05-24T11:06:12.954Z,15.92
2023-05-24T11:09:01.097Z,16.11
2023-05-24T11:11:54.453Z,16.26
2023-05-24T11:14:49.877Z,16.30
2023-05-24T11:18:15.416Z,16.33
2023-05-24T11:21:03.957Z,16.33
2023-05-24T11:23:52.024Z,16.28
2023-05-24T11:26:40.362Z,16.29
2023-05-24T11:29:30.431Z,16.29
2023-05-24T11:32:21.312Z,16.29
2023-05-24T11:35:11.575Z,16.24
2023-05-24T11:37:59.427Z,16.23
2023-05-24T11:40:49.875Z,16.31
2023-05-24T11:43:37.971Z,16.34
2023-05-24T11:46:26.955Z,16.57
2023-05-24T11:49:18.160Z,16.91
2023-05-24T11:52:08.908Z,17.04
2023-05-24T11:54:57.001Z,17.34
2023-05-24T11:57:59.250Z,17.56
2023-05-24T12:00:47.851Z,17.65
2023-05-24T12:03:35.656Z,17.69
2023-05-24T12:06:23.742Z,17.63
2023-05-24T12:09:16.796Z,17.53
2023-05-24T12:12:07.304Z,17.46
2023-05-24T12:14:56.715Z,17.45
2023-05-24T12:17:50.339Z,17.47
2023-05-24T12:20:39.136Z,17.50
2023-05-24T12:23:29.622Z,17.47
2023-05-24T12:26:20.882Z,17.47
2023-05-24T12:29:11.690Z,17.56
2023-05-24T12:32:00.050Z,17.80
2023-05-24T12:34:50.414Z,17.94
2023-05-24T12:37:39.685Z,17.96
2023-05-24T12:40:27.783Z,17.97
2023-05-24T12:43:16.314Z,17.88
2023-05-24T12:46:04.692Z,17.79
2023-05-24T12:49:04.269Z,17.97
2023-05-24T12:51:55.389Z,18.05
2023-05-24T12:54:43.728Z,18.17
2023-05-24T12:57:32.494Z,18.40
2023-05-24T13:00:33.362Z,18.53
2023-05-24T13:03:21.437Z,18.61
2023-05-24T13:06:09.267Z,18.47
2023-05-24T13:08:57.036Z,18.26
2023-05-24T13:11:45.632Z,18.01
2023-05-24T13:14:34.306Z,17.72
2023-05-24T13:17:22.254Z,17.50
2023-05-24T13:20:11.893Z,17.32
2023-05-24T13:22:59.770Z,17.18
2023-05-24T13:25:47.918Z,17.07
2023-05-24T13:28:35.628Z,16.97
2023-05-24T13:31:23.372Z,16.97
2023-05-24T13:34:11.463Z,17.14
2023-05-24T13:37:00.290Z,17.30
2023-05-24T13:39:48.092Z,17.35
2023-05-24T13:42:35.972Z,17.31
2023-05-24T13:45:27.087Z,17.21
2023-05-24T13:48:15.070Z,17.09
2023-05-24T13:51:02.862Z,16.94
2023-05-24T13:53:50.848Z,16.76
2023-05-24T13:56:39.882Z,16.65
2023-05-24T13:59:28.256Z,16.56
2023-05-24T14:02:17.026Z,16.44
2023-05-24T14:05:24.774Z,16.35
2023-05-24T14:08:14.110Z,16.27
2023-05-24T14:11:01.990Z,16.25
2023-05-24T14:16:42.239Z,16.19
2023-05-24T14:19:30.114Z,16.16
2023-05-24T14:22:17.983Z,16.12
2023-05-24T14:25:08.018Z,16.05
2023-05-24T14:27:55.994Z,16.02
2023-05-24T14:30:44.282Z,15.98
2023-05-24T14:33:32.142Z,15.92
2023-05-24T14:36:19.969Z,15.86
2023-05-24T14:39:08.494Z,15.81
2023-05-24T14:41:56.779Z,15.77
2023-05-24T14:44:44.678Z,15.75
2023-05-24T14:47:32.587Z,15.70
2023-05-24T14:50:20.666Z,15.69
2023-05-24T14:53:12.399Z,15.71
2023-05-24T14:56:00.268Z,15.63
2023-05-24T14:58:48.085Z,15.63
2023-05-24T15:01:36.798Z,15.67
2023-05-24T15:04:24.933Z,15.72
2023-05-24T15:07:12.833Z,15.76
2023-05-24T15:10:01.577Z,15.74
2023-05-24T15:12:49.526Z,15.74
2023-05-24T15:15:37.386Z,15.76
2023-05-24T15:18:27.391Z,15.77
2023-05-24T15:21:15.244Z,15.78
2023-05-24T15:24:05.591Z,15.76
2023-05-24T15:26:53.489Z,15.73
2023-05-24T15:29:41.382Z,15.68
2023-05-24T15:32:29.228Z,15.65
2023-05-24T15:35:17.468Z,15.61
2023-05-24T15:38:06.263Z,15.61
2023-05-24T15:40:54.277Z,15.62
2023-05-24T15:43:42.073Z,15.61
2023-05-24T15:46:30.078Z,15.60
2023-05-24T15:49:17.865Z,15.56
2023-05-24T15:52:06.348Z,15.60
2023-05-24T15:54:54.404Z,15.64
2023-05-24T15:57:42.145Z,15.68
2023-05-24T16:00:29.911Z,15.78
2023-05-24T16:03:17.853Z,15.89
2023-05-24T16:06:07.689Z,16.00
2023-05-24T16:08:55.624Z,16.14
2023-05-24T16:11:43.419Z,16.30
2023-05-24T16:14:31.606Z,16.43
2023-05-24T16:17:19.969Z,16.58
2023-05-24T16:20:11.010Z,16.72
2023-05-24T16:22:58.958Z,16.77
2023-05-24T16:25:47.513Z,16.80
2023-05-24T16:28:44.101Z,16.80
2023-05-24T16:31:32.102Z,16.85
2023-05-24T16:34:20.132Z,17.09
2023-05-24T16:37:07.994Z,17.41
2023-05-24T16:39:55.752Z,17.49
2023-05-24T16:42:43.740Z,17.42
2023-05-24T16:45:31.565Z,17.37
2023-05-24T16:48:21.574Z,17.25
2023-05-24T16:51:09.791Z,17.07
2023-05-24T16:53:57.630Z,17.09
2023-05-24T16:56:46.238Z,17.24
2023-05-24T16:59:34.184Z,17.36
2023-05-24T17:02:22.058Z,17.43
2023-05-24T17:05:10.274Z,17.48
2023-05-24T17:07:58.162Z,17.51
2023-05-24T17:10:45.985Z,17.59
2023-05-24T17:13:35.112Z,17.76
2023-05-24T17:16:23.001Z,17.94
2023-05-24T17:19:12.760Z,18.00
2023-05-24T17:22:00.881Z,17.99
2023-05-24T17:24:48.834Z,18.09
2023-05-24T17:27:36.783Z,18.12
2023-05-24T17:30:27.459Z,18.13
2023-05-24T17:33:16.109Z,18.13
2023-05-24T17:36:06.104Z,18.07
2023-05-24T17:38:53.914Z,18.10
2023-05-24T17:41:41.760Z,18.04
2023-05-24T17:44:29.609Z,17.98
2023-05-24T17:47:17.418Z,17.95
2023-05-24T17:50:06.291Z,17.94
2023-05-24T17:52:54.130Z,17.95
2023-05-24T17:55:42.264Z,17.95
2023-05-24T17:58:36.688Z,17.89
2023-05-24T18:01:25.298Z,17.76
2023-05-24T18:04:13.304Z,17.76
2023-05-24T18:07:01.232Z,17.75
2023-05-24T18:09:49.122Z,17.64
2023-05-24T18:12:37.611Z,17.61
2023-05-24T18:15:25.482Z,17.58
2023-05-24T18:18:13.598Z,17.46
2023-05-24T18:21:01.653Z,17.34
2023-05-24T18:23:49.678Z,17.21
2023-05-24T18:26:37.632Z,17.12
2023-05-24T18:29:25.596Z,16.99
2023-05-24T18:32:13.556Z,16.82
2023-05-24T18:35:01.670Z,16.70
2023-05-24T18:37:49.545Z,16.57
2023-05-24T18:40:37.328Z,16.41
2023-05-24T18:43:25.099Z,16.27
2023-05-24T18:46:13.333Z,16.22
2023-05-24T18:49:03.041Z,16.09
2023-05-24T18:51:51.006Z,15.96
2023-05-24T18:54:39.022Z,15.80
2023-05-24T18:57:27.196Z,15.66
2023-05-24T19:00:19.313Z,15.53
2023-05-24T19:03:07.795Z,15.42
2023-05-24T19:05:55.747Z,15.29
2023-05-24T19:08:43.520Z,15.14
2023-05-24T19:11:31.323Z,15.02
2023-05-24T19:14:22.154Z,14.89
2023-05-24T19:17:10.101Z,14.78
2023-05-24T19:20:02.521Z,14.66
2023-05-24T19:22:50.835Z,14.56
2023-05-24T19:25:42.210Z,14.45
2023-05-24T19:28:30.544Z,14.35
2023-05-24T19:31:20.383Z,14.26
2023-05-24T19:34:08.373Z,14.19
2023-05-24T19:36:56.297Z,14.09
2023-05-24T19:39:44.303Z,13.98
2023-05-24T19:42:32.132Z,13.88
2023-05-24T19:45:20.077Z,13.81
2023-05-24T19:48:09.798Z,13.69
2023-05-24T19:50:57.849Z,13.62
2023-05-24T19:53:46.337Z,13.52
2023-05-24T19:56:34.245Z,13.45
2023-05-24T19:59:22.105Z,13.37
2023-05-24T20:02:09.846Z,13.31
2023-05-24T20:04:57.695Z,13.23
2023-05-24T20:07:45.783Z,13.15
2023-05-24T20:10:36.239Z,13.08
2023-05-24T20:13:24.121Z,12.99
2023-05-24T20:16:12.067Z,12.94
2023-05-24T20:18:59.978Z,12.91
2023-05-24T20:21:48.020Z,12.86
2023-05-24T20:24:35.993Z,12.83
2023-05-24T20:27:23.845Z,12.78
2023-05-24T20:30:12.868Z,12.71
2023-05-24T20:33:01.732Z,12.63
2023-05-24T20:35:49.985Z,12.58
2023-05-24T20:38:40.705Z,12.54
2023-05-24T20:41:30.581Z,12.48
2023-05-24T20:44:18.522Z,12.42
2023-05-24T20:47:06.625Z,12.35
2023-05-24T20:49:54.574Z,12.27
2023-05-24T20:52:42.401Z,12.21
2023-05-24T20:55:31.148Z,12.15
2023-05-24T20:58:18.988Z,12.10
2023-05-24T21:01:08.373Z,12.05
2023-05-24T21:03:56.734Z,12.02
2023-05-24T21:06:44.560Z,11.97
2023-05-24T21:09:32.419Z,11.93
2023-05-24T21:12:20.754Z,11.85
2023-05-24T21:15:09.202Z,11.79
2023-05-24T21:17:57.055Z,11.72
2023-05-24T21:20:45.101Z,11.68
2023-05-24T21:23:32.894Z,11.63
2023-05-24T21:26:20.642Z,11.58
2023-05-24T21:29:11.903Z,11.55
2023-05-24T21:31:59.891Z,11.50
2023-05-24T21:34:50.015Z,11.45
2023-05-24T21:37:38.006Z,11.41
2023-05-24T21:40:26.333Z,11.38
2023-05-24T21:43:17.285Z,11.35
2023-05-24T21:46:05.120Z,11.30
2023-05-24T21:48:53.022Z,11.28
2023-05-24T21:51:40.917Z,11.25
2023-05-24T21:54:29.104Z,11.22
2023-05-24T21:57:16.973Z,11.19
2023-05-24T22:00:05.957Z,11.15
2023-05-24T22:02:54.085Z,11.07
2023-05-24T22:05:42.069Z,11.00
2023-05-24T22:08:30.600Z,10.94
2023-05-24T22:11:18.465Z,10.87
2023-05-24T22:14:06.381Z,10.83
2023-05-24T22:16:54.796Z,10.79
2023-05-24T22:19:42.851Z,10.74
2023-05-24T22:22:30.726Z,10.67
2023-05-24T22:25:19.656Z,10.60
2023-05-24T22:28:09.459Z,10.53
2023-05-24T22:30:57.513Z,10.47
2023-05-24T22:33:46.945Z,10.41
2023-05-24T22:36:35.334Z,10.36
2023-05-24T22:39:24.250Z,10.33
2023-05-24T22:42:12.202Z,10.29
2023-05-24T22:45:00.035Z,10.25
2023-05-24T22:47:51.099Z,10.23
2023-05-24T22:50:39.233Z,10.21
2023-05-24T22:53:27.145Z,10.18
2023-05-24T22:56:16.440Z,10.16
2023-05-24T22:59:06.090Z,10.12
2023-05-24T23:01:54.079Z,10.08
2023-05-24T23:04:46.080Z,10.04
2023-05-24T23:07:34.001Z,10.02
2023-05-24T23:10:22.107Z,10.01
2023-05-24T23:13:10.103Z,10.00
2023-05-24T23:15:58.648Z,9.97
2023-05-24T23:18:47.459Z,9.93
2023-05-24T23:21:36.982Z,9.89
2023-05-24T23:24:26.805Z,9.84
2023-05-24T23:27:15.057Z,9.82
2023-05-24T23:30:02.987Z,9.79
2023-05-24T23:32:50.921Z,9.78
2023-05-24T23:35:41.991Z,9.76
2023-05-24T23:38:30.952Z,9.77
2023-05-24T23:41:18.844Z,9.79
2023-05-24T23:44:06.647Z,9.79
2023-05-24T23:46:54.432Z,9.78
2023-05-24T23:49:42.377Z,9.76
2023-05-24T23:52:30.196Z,9.72
2023-05-24T23:55:18.135Z,9.67
2023-05-24T23:58:07.917Z,9.67
